createdAt,value
2023-01-08T00:02:22.201Z,47.10
2023-01-08T00:05:23.799Z,48.10
2023-01-08T00:08:25.399Z,49.00
2023-01-08T00:11:27.115Z,50.00
2023-01-08T00:14:30.644Z,54.00
2023-01-08T00:17:32.641Z,58.20
2023-01-08T00:23:36.510Z,56.80
2023-01-08T00:26:38.035Z,55.00
2023-01-08T00:29:39.772Z,52.20
2023-01-08T00:32:41.317Z,50.90
2023-01-08T00:35:43.062Z,47.40
2023-01-08T00:38:46.265Z,44.90
2023-01-08T00:41:48.070Z,44.70
2023-01-08T00:44:49.588Z,42.90
2023-01-08T00:47:51.186Z,42.60
2023-01-08T00:50:53.673Z,43.50
2023-01-08T00:53:55.263Z,43.20
2023-01-08T00:56:56.944Z,45.00
2023-01-08T00:59:58.469Z,42.50
2023-01-08T01:03:00.083Z,42.50
2023-01-08T01:06:03.304Z,41.40
2023-01-08T01:09:05.107Z,43.60
2023-01-08T01:15:10.675Z,45.90
2023-01-08T01:18:12.422Z,50.50
2023-01-08T01:24:34.667Z,56.20
2023-01-08T01:27:36.427Z,54.10
2023-01-08T01:30:38.094Z,50.90
2023-01-08T01:33:41.112Z,49.00
2023-01-08T01:36:42.846Z,52.80
2023-01-08T01:39:44.702Z,52.00
2023-01-08T01:42:46.328Z,49.00
2023-01-08T01:45:47.965Z,47.90
2023-01-08T01:48:52.073Z,46.20
2023-01-08T01:51:56.421Z,45.80
2023-01-08T01:55:00.134Z,49.70
2023-01-08T01:58:06.762Z,49.30
2023-01-08T02:01:10.035Z,49.60
2023-01-08T02:04:13.365Z,49.20
2023-01-08T02:07:48.185Z,51.90
2023-01-08T02:10:56.812Z,52.00
2023-01-08T02:14:08.332Z,56.70
2023-01-08T02:17:12.558Z,56.70
2023-01-08T02:20:21.711Z,56.20
2023-01-08T02:23:38.604Z,49.10
2023-01-08T02:26:40.317Z,50.20
2023-01-08T02:32:43.873Z,51.80
2023-01-08T02:38:57.872Z,51.50
2023-01-08T02:42:05.273Z,48.10
2023-01-08T02:45:39.286Z,48.20
2023-01-08T02:49:08.022Z,47.70
2023-01-08T02:52:11.815Z,43.90
2023-01-08T02:55:13.948Z,45.20
2023-01-08T02:58:16.093Z,43.50
2023-01-08T03:01:19.067Z,42.90
2023-01-08T03:04:22.942Z,42.70
2023-01-08T03:07:24.576Z,43.70
2023-01-08T03:10:28.775Z,43.00
2023-01-08T03:14:02.029Z,43.40
2023-01-08T03:17:27.264Z,46.90
2023-01-08T03:20:30.674Z,52.80
2023-01-08T03:23:34.034Z,51.50
2023-01-08T03:26:37.948Z,50.00
2023-01-08T03:29:40.789Z,50.10
2023-01-08T03:32:43.750Z,57.10
2023-01-08T03:35:48.146Z,49.80
2023-01-08T03:39:14.628Z,50.00
2023-01-08T03:42:17.502Z,41.50
2023-01-08T03:45:20.257Z,45.90
2023-01-08T03:48:22.409Z,46.10
2023-01-08T03:51:23.947Z,45.50
2023-01-08T03:54:30.345Z,44.90
2023-01-08T03:57:31.949Z,42.60
2023-01-08T04:00:33.641Z,45.40
2023-01-08T04:03:35.351Z,40.10
2023-01-08T04:06:37.445Z,39.50
2023-01-08T04:09:39.213Z,38.10
2023-01-08T04:15:50.980Z,36.90
2023-01-08T04:18:52.819Z,38.70
2023-01-08T04:21:54.499Z,38.60
2023-01-08T04:24:56.200Z,40.80
2023-01-08T04:27:57.727Z,33.80
2023-01-08T04:30:59.466Z,34.00
2023-01-08T04:37:02.587Z,30.90
2023-01-08T04:40:04.913Z,29.50
2023-01-08T04:43:06.497Z,29.30
2023-01-08T04:46:08.124Z,31.60
2023-01-08T04:49:11.480Z,29.90
2023-01-08T04:52:13.229Z,31.00
2023-01-08T04:55:14.963Z,31.30
2023-01-08T04:58:16.569Z,30.50
2023-01-08T05:01:23.285Z,34.40
2023-01-08T05:04:24.920Z,32.70
2023-01-08T05:07:26.602Z,30.80
2023-01-08T05:10:28.362Z,34.40
2023-01-08T05:13:30.041Z,36.40
2023-01-08T05:16:31.577Z,37.60
2023-01-08T05:19:33.162Z,37.70
2023-01-08T05:22:35.280Z,41.50
2023-01-08T05:25:36.889Z,38.00
2023-01-08T05:28:38.737Z,43.60
2023-01-08T05:31:40.248Z,47.00
2023-01-08T05:34:42.081Z,42.00
2023-01-08T05:40:45.361Z,46.30
2023-01-08T05:46:48.498Z,37.50
2023-01-08T05:52:51.865Z,30.80
2023-01-08T05:58:59.627Z,38.70
2023-01-08T06:02:01.156Z,40.50
2023-01-08T06:05:06.232Z,41.10
2023-01-08T06:08:08.793Z,42.10
2023-01-08T06:11:11.147Z,42.40
2023-01-08T06:14:12.819Z,37.70
2023-01-08T06:17:14.450Z,34.60
2023-01-08T06:20:16.140Z,35.30
2023-01-08T06:23:17.925Z,34.50
2023-01-08T06:26:19.591Z,32.80
2023-01-08T06:29:21.161Z,32.20
2023-01-08T06:32:22.747Z,31.30
2023-01-08T06:35:25.151Z,32.80
2023-01-08T06:38:26.725Z,32.20
2023-01-08T06:41:28.547Z,36.60
2023-01-08T06:44:30.221Z,38.20
2023-01-08T06:47:32.923Z,42.60
2023-01-08T06:50:35.588Z,40.20
2023-01-08T06:53:37.198Z,42.60
2023-01-08T06:56:52.554Z,41.90
2023-01-08T06:59:54.828Z,39.60
2023-01-08T07:02:56.829Z,38.90
2023-01-08T07:05:58.644Z,40.80
2023-01-08T07:09:00.290Z,37.20
2023-01-08T07:12:02.013Z,36.10
2023-01-08T07:18:06.811Z,39.40
2023-01-08T07:21:09.147Z,41.00
2023-01-08T07:24:10.927Z,38.90
2023-01-08T07:30:28.960Z,35.10
2023-01-08T07:33:31.937Z,36.20
2023-01-08T07:36:33.754Z,36.70
2023-01-08T07:39:35.407Z,53.20
2023-01-08T07:42:37.793Z,81.20
2023-01-08T07:45:39.440Z,72.40
2023-01-08T07:51:42.541Z,62.00
2023-01-08T07:54:44.201Z,38.30
2023-01-08T07:57:45.689Z,34.40
2023-01-08T08:00:47.374Z,32.60
2023-01-08T08:03:49.055Z,31.10
2023-01-08T08:09:52.619Z,37.30
2023-01-08T08:12:54.227Z,42.40
2023-01-08T08:15:55.994Z,34.30
2023-01-08T08:22:00.271Z,23.70
2023-01-08T08:25:01.839Z,21.60
2023-01-08T08:28:04.076Z,22.90
2023-01-08T08:31:05.893Z,23.90
2023-01-08T08:34:07.557Z,25.80
2023-01-08T08:37:09.775Z,24.80
2023-01-08T08:40:11.610Z,24.30
2023-01-08T08:46:14.593Z,25.50
2023-01-08T08:49:16.258Z,25.20
2023-01-08T08:55:19.525Z,21.90
2023-01-08T09:01:22.722Z,18.40
2023-01-08T09:04:24.383Z,22.40
2023-01-08T09:07:26.079Z,22.10
2023-01-08T09:10:27.667Z,22.50
2023-01-08T09:13:29.346Z,20.10
2023-01-08T09:16:31.001Z,17.40
2023-01-08T09:19:32.644Z,17.50
2023-01-08T09:22:34.218Z,19.20
2023-01-08T09:25:35.849Z,17.20
2023-01-08T09:28:37.437Z,16.40
2023-01-08T09:31:39.251Z,17.40
2023-01-08T09:34:40.980Z,15.30
2023-01-08T09:37:42.556Z,14.10
2023-01-08T09:41:09.039Z,14.60
2023-01-08T09:44:15.278Z,13.40
2023-01-08T09:47:29.279Z,13.50
2023-01-08T09:50:31.040Z,13.70
2023-01-08T09:53:33.186Z,13.30
2023-01-08T09:56:35.101Z,13.90
2023-01-08T09:59:36.737Z,13.10
2023-01-08T10:02:39.920Z,14.10
2023-01-08T10:05:41.606Z,14.50
2023-01-08T10:11:50.602Z,12.80
2023-01-08T10:14:54.338Z,12.70
2023-01-08T10:18:02.693Z,13.00
2023-01-08T10:21:04.566Z,13.30
2023-01-08T10:24:06.810Z,12.90
2023-01-08T10:27:14.543Z,13.10
2023-01-08T10:30:18.887Z,13.50
2023-01-08T10:33:24.824Z,12.80
2023-01-08T10:36:26.385Z,12.20
2023-01-08T10:39:29.942Z,12.70
2023-01-08T10:42:34.591Z,12.90
2023-01-08T10:45:36.223Z,13.60
2023-01-08T10:48:46.785Z,14.10
2023-01-08T10:51:50.254Z,14.80
2023-01-08T10:54:52.074Z,18.50
2023-01-08T10:58:09.114Z,18.40
2023-01-08T11:01:30.767Z,19.10
2023-01-08T11:04:34.383Z,17.40
2023-01-08T11:07:36.329Z,17.50
2023-01-08T11:10:37.911Z,17.90
2023-01-08T11:13:39.538Z,17.90
2023-01-08T11:16:41.952Z,17.10
2023-01-08T11:19:43.557Z,16.90
2023-01-08T11:22:45.232Z,16.30
2023-01-08T11:26:00.198Z,17.30
2023-01-08T11:29:15.430Z,19.00
2023-01-08T11:32:16.994Z,20.90
2023-01-08T11:35:25.813Z,21.80
2023-01-08T11:38:27.361Z,21.50
2023-01-08T11:41:46.777Z,21.40
2023-01-08T11:44:59.006Z,19.20
2023-01-08T11:48:20.553Z,17.10
2023-01-08T11:51:50.427Z,16.60
2023-01-08T11:55:20.012Z,15.40
2023-01-08T11:58:30.463Z,15.90
2023-01-08T12:01:53.383Z,16.80
2023-01-08T12:05:07.080Z,17.20
2023-01-08T12:08:31.453Z,16.20
2023-01-08T12:11:45.002Z,17.80
2023-01-08T12:15:11.193Z,15.30
2023-01-08T12:18:57.966Z,15.50
2023-01-08T12:22:19.856Z,14.80
2023-01-08T12:25:22.804Z,36.70
2023-01-08T12:28:51.728Z,27.30
2023-01-08T12:32:11.749Z,19.80
2023-01-08T12:35:26.591Z,17.20
2023-01-08T12:38:38.191Z,16.40
2023-01-08T12:41:40.967Z,13.50
2023-01-08T12:44:44.134Z,13.00
2023-01-08T12:47:50.666Z,13.80
2023-01-08T12:51:04.219Z,14.50
2023-01-08T12:54:30.188Z,13.90
2023-01-08T12:57:40.059Z,12.90
2023-01-08T13:01:06.537Z,11.70
2023-01-08T13:04:09.544Z,17.00
2023-01-08T13:07:18.535Z,12.40
2023-01-08T13:10:41.314Z,11.30
2023-01-08T13:13:43.062Z,10.10
2023-01-08T13:16:46.898Z,10.40
2023-01-08T13:19:54.704Z,9.80
2023-01-08T13:23:02.152Z,11.00
2023-01-08T13:26:05.711Z,10.00
2023-01-08T13:29:22.899Z,9.30
2023-01-08T13:32:44.329Z,9.40
2023-01-08T13:35:46.029Z,8.60
2023-01-08T13:39:00.698Z,8.20
2023-01-08T13:42:11.285Z,7.70
2023-01-08T13:45:13.232Z,8.80
2023-01-08T13:48:22.735Z,8.30
2023-01-08T13:51:44.244Z,8.00
2023-01-08T13:54:45.978Z,8.50
2023-01-08T13:57:57.705Z,9.80
2023-01-08T14:01:00.329Z,10.80
2023-01-08T14:04:01.955Z,16.60
2023-01-08T14:07:13.245Z,34.10
2023-01-08T14:10:15.573Z,69.90
2023-01-08T14:13:18.197Z,54.80
2023-01-08T14:16:20.554Z,25.60
2023-01-08T14:19:24.644Z,35.10
2023-01-08T14:22:32.860Z,16.80
2023-01-08T14:25:34.463Z,14.90
2023-01-08T14:31:37.681Z,11.10
2023-01-08T14:37:40.992Z,10.60
2023-01-08T14:43:46.500Z,12.40
2023-01-08T14:46:48.628Z,17.80
2023-01-08T14:49:53.240Z,27.60
2023-01-08T14:53:00.835Z,31.20
2023-01-08T14:56:05.052Z,19.40
2023-01-08T14:59:11.324Z,16.30
2023-01-08T15:02:26.215Z,16.40
2023-01-08T15:05:32.277Z,16.90
2023-01-08T15:08:36.718Z,16.80
2023-01-08T15:11:50.144Z,19.30
2023-01-08T15:14:51.786Z,16.40
2023-01-08T15:23:58.418Z,63.20
2023-01-08T15:27:01.072Z,47.60
2023-01-08T15:30:04.643Z,44.60
2023-01-08T15:33:26.586Z,40.50
2023-01-08T15:39:29.606Z,28.50
2023-01-08T15:42:32.623Z,25.40
2023-01-08T15:45:34.345Z,30.70
2023-01-08T15:51:41.714Z,25.90
2023-01-08T15:54:43.403Z,28.10
2023-01-08T15:57:45.014Z,25.30
2023-01-08T16:00:46.832Z,27.70
2023-01-08T16:03:48.801Z,22.80
2023-01-08T16:06:50.638Z,20.10
2023-01-08T16:09:52.210Z,19.20
2023-01-08T16:12:53.837Z,22.20
2023-01-08T16:18:58.939Z,16.60
2023-01-08T16:22:00.500Z,21.20
2023-01-08T16:25:02.275Z,30.80
2023-01-08T16:31:05.997Z,19.40
2023-01-08T16:34:07.618Z,25.40
2023-01-08T16:37:34.989Z,35.30
2023-01-08T16:40:36.664Z,36.10
2023-01-08T16:43:40.401Z,59.80
2023-01-08T16:46:42.096Z,40.00
2023-01-08T16:49:43.657Z,40.80
2023-01-08T16:52:45.363Z,43.90
2023-01-08T16:58:50.928Z,45.80
2023-01-08T17:01:53.231Z,48.80
2023-01-08T17:04:54.971Z,47.80
2023-01-08T17:10:58.349Z,43.50
2023-01-08T17:13:59.954Z,41.80
2023-01-08T17:17:01.647Z,33.40
2023-01-08T17:20:04.295Z,38.30
2023-01-08T17:23:05.931Z,38.00
2023-01-08T17:26:10.104Z,35.30
2023-01-08T17:29:11.687Z,34.20
2023-01-08T17:32:13.515Z,35.60
2023-01-08T17:38:16.973Z,41.40
2023-01-08T17:41:19.237Z,51.30
2023-01-08T17:44:21.330Z,38.40
2023-01-08T17:47:23.907Z,48.30
2023-01-08T17:50:25.552Z,53.20
2023-01-08T17:53:27.844Z,52.80
2023-01-08T17:56:29.409Z,51.90
2023-01-08T17:59:31.144Z,40.00
2023-01-08T18:02:32.869Z,31.80
2023-01-08T18:08:37.201Z,32.70
2023-01-08T18:11:40.262Z,33.20
2023-01-08T18:14:41.823Z,35.60
2023-01-08T18:17:43.442Z,32.70
2023-01-08T18:20:45.021Z,33.60
2023-01-08T18:23:46.672Z,38.30
2023-01-08T18:32:52.022Z,44.30
2023-01-08T18:35:53.710Z,46.90
2023-01-08T18:38:56.101Z,58.20
2023-01-08T18:41:57.681Z,72.50
2023-01-08T18:44:59.408Z,85.30
2023-01-08T18:48:02.005Z,76.50
2023-01-08T18:51:03.741Z,79.70
2023-01-08T18:57:06.972Z,67.10
2023-01-08T19:00:09.154Z,69.30
2023-01-08T19:03:10.826Z,53.50
2023-01-08T19:09:15.423Z,46.70
2023-01-08T19:14:25.895Z,51.40
2023-01-08T19:20:31.442Z,41.70
2023-01-08T19:26:34.863Z,37.50
2023-01-08T19:29:36.429Z,36.50
2023-01-08T19:32:38.005Z,38.00
2023-01-08T19:35:40.590Z,32.70
2023-01-08T19:38:43.556Z,39.20
2023-01-08T19:41:45.492Z,49.20
2023-01-08T19:47:48.913Z,62.50
2023-01-08T19:50:50.419Z,60.10
2023-01-08T19:53:53.281Z,70.50
2023-01-08T19:56:55.480Z,69.00
2023-01-08T19:59:57.181Z,63.80
2023-01-08T20:06:00.231Z,57.20
2023-01-08T20:09:01.977Z,51.20
2023-01-08T20:12:04.609Z,41.20
2023-01-08T20:15:06.724Z,45.60
2023-01-08T20:18:08.457Z,50.20
2023-01-08T20:21:18.985Z,51.40
2023-01-08T20:27:46.840Z,66.80
2023-01-08T20:30:48.403Z,66.40
2023-01-08T20:33:49.971Z,58.10
2023-01-08T20:36:52.072Z,41.70
2023-01-08T20:39:53.640Z,37.10
2023-01-08T20:42:55.205Z,33.90
2023-01-08T20:45:56.920Z,33.40
2023-01-08T20:52:01.030Z,40.70
2023-01-08T20:55:03.009Z,38.40
2023-01-08T20:58:04.641Z,40.80
2023-01-08T21:01:13.235Z,43.00
2023-01-08T21:04:14.889Z,55.30
2023-01-08T21:07:16.517Z,47.00
2023-01-08T21:10:18.263Z,52.00
2023-01-08T21:13:19.745Z,60.70
2023-01-08T21:16:24.682Z,68.50
2023-01-08T21:19:26.297Z,73.40
2023-01-08T21:22:27.894Z,74.40
2023-01-08T21:25:30.101Z,77.20
2023-01-08T21:28:32.564Z,76.80
2023-01-08T21:31:35.457Z,88.00
2023-01-08T21:34:37.032Z,83.50
2023-01-08T21:37:38.547Z,79.00
2023-01-08T21:40:40.697Z,63.90
2023-01-08T21:46:43.927Z,59.20
2023-01-08T21:49:46.219Z,54.90
2023-01-08T21:52:47.941Z,43.60
2023-01-08T21:58:51.061Z,49.80
2023-01-08T22:01:52.802Z,55.40
2023-01-08T22:07:56.596Z,55.60
2023-01-08T22:10:58.774Z,64.50
2023-01-08T22:14:00.375Z,66.30
2023-01-08T22:17:02.027Z,68.10
2023-01-08T22:20:03.863Z,70.60
2023-01-08T22:26:09.630Z,61.20
2023-01-08T22:29:11.249Z,60.50
2023-01-08T22:32:12.809Z,56.00
2023-01-08T22:35:14.507Z,67.70
2023-01-08T22:38:16.102Z,73.10
2023-01-08T22:41:23.619Z,74.70
2023-01-08T22:44:25.190Z,71.50
2023-01-08T22:47:27.843Z,66.40
2023-01-08T22:50:29.399Z,65.20
2023-01-08T22:53:31.189Z,57.90
2023-01-08T22:59:34.679Z,50.30
2023-01-08T23:02:37.138Z,46.70
2023-01-08T23:05:39.084Z,61.30
2023-01-08T23:08:42.356Z,66.50
2023-01-08T23:11:44.290Z,68.90
2023-01-08T23:14:45.883Z,54.20
2023-01-08T23:17:52.448Z,59.30
2023-01-08T23:21:03.745Z,53.90
2023-01-08T23:24:07.205Z,41.40
2023-01-08T23:27:08.824Z,43.40
2023-01-08T23:33:12.402Z,42.50
2023-01-08T23:36:13.997Z,41.00
2023-01-08T23:39:16.144Z,39.70
2023-01-08T23:42:17.848Z,41.40
2023-01-08T23:48:22.359Z,41.60
2023-01-08T23:51:24.534Z,47.90
2023-01-08T23:54:26.412Z,45.30
2023-01-08T23:57:28.003Z,40.80
